Terminal Aerodrome Forecast
Issued by NWS Atlanta, GA

Home | Current Version | Previous Version | Text Only | Print | Product List | Glossary On
Versions: 1 2 3 4 5 6 7 8 9 10 11 12 13 14 15
000
FTUS42 KFFC 022339
TAFCSG
TAF
KCSG 022339Z 0300/0324 00000KT P6SM FEW070 SCT200
     FM031400 32003KT P6SM SCT045 BKN200
     FM031700 30004KT P6SM BKN050 PROB30 0320/0324 -SHRA=

USA.gov is the U.S. government's official web portal to all federal, state and local government web resources and services.